Time;durP1;ratioP1;P1;durP2;ratioP2;P2;SDS_P1;SDS_P2;PMS_P1;PMS_P2;Temp;Humidity;BMP_temperature;BMP_pressure;BME280_temperature;BME280_humidity;BME280_pressure;Samples;Min_cycle;Max_cycle;Signal;HPM_P1;HPM_P2
2020/12/12 00:01:33;;;;;;;3.17;2.40;;;13.50;78.00;;;;;;5117760;28;20019;-45
2020/12/12 00:03:59;;;;;;;2.67;2.20;;;13.50;78.00;;;;;;5125629;27;20039;-45
2020/12/12 00:06:26;;;;;;;2.83;2.58;;;13.50;78.00;;;;;;5129967;27;20027;-46
2020/12/12 00:08:52;;;;;;;2.88;2.55;;;13.50;78.00;;;;;;5134995;27;20835;-46
2020/12/12 00:11:20;;;;;;;2.78;2.40;;;13.50;78.00;;;;;;5131693;27;20056;-44
2020/12/12 00:13:46;;;;;;;3.10;2.63;;;13.50;78.00;;;;;;5130124;27;20047;-44
2020/12/12 00:16:15;;;;;;;2.88;2.60;;;13.50;77.90;;;;;;5131094;27;20060;-44
2020/12/12 00:18:41;;;;;;;3.00;2.70;;;13.50;77.90;;;;;;5136357;27;20038;-45
2020/12/12 00:21:08;;;;;;;2.75;2.20;;;13.50;78.00;;;;;;5116501;27;20032;-45
2020/12/12 00:23:34;;;;;;;2.60;2.40;;;13.50;78.00;;;;;;5130025;27;20079;-45
2020/12/12 00:26:00;;;;;;;3.95;2.83;;;13.50;78.00;;;;;;5129497;27;20080;-45
2020/12/12 00:28:26;;;;;;;3.22;2.75;;;13.50;78.00;;;;;;5135648;27;20024;-45
2020/12/12 00:30:52;;;;;;;3.25;2.58;;;13.40;78.00;;;;;;5128949;27;20027;-45
2020/12/12 00:33:18;;;;;;;3.00;2.63;;;13.40;78.00;;;;;;5133398;27;20098;-46
2020/12/12 00:35:45;;;;;;;3.47;2.63;;;13.40;78.00;;;;;;5136728;27;20045;-44
2020/12/12 00:38:11;;;;;;;2.80;2.53;;;13.40;78.00;;;;;;5134089;27;20589;-45
2020/12/12 00:40:37;;;;;;;3.88;2.75;;;13.40;78.00;;;;;;5131172;27;20050;-45
2020/12/12 00:43:03;;;;;;;3.42;2.70;;;13.40;78.00;;;;;;5131549;27;20027;-46
2020/12/12 00:45:29;;;;;;;2.90;2.40;;;13.40;78.00;;;;;;5138253;27;20054;-46
2020/12/12 00:47:55;;;;;;;3.22;2.45;;;13.40;78.00;;;;;;5127214;27;20031;-46
2020/12/12 00:50:23;;;;;;;2.63;2.40;;;13.40;78.00;;;;;;5125240;27;20024;-45
2020/12/12 00:52:50;;;;;;;2.92;2.40;;;13.40;78.00;;;;;;5132269;27;20102;-44
2020/12/12 00:55:16;;;;;;;4.25;2.20;;;13.40;78.00;;;;;;5134092;27;20031;-45
2020/12/12 00:57:44;;;;;;;4.55;2.75;;;13.40;78.00;;;;;;5135027;27;20035;-45
2020/12/12 01:00:10;;;;;;;2.90;2.60;;;13.40;78.00;;;;;;5125378;27;20031;-45
2020/12/12 01:02:37;;;;;;;3.00;2.60;;;13.40;78.00;;;;;;5137492;27;20538;-45
2020/12/12 01:05:04;;;;;;;3.63;2.97;;;13.40;78.00;;;;;;5127792;27;20050;-45
2020/12/12 01:07:30;;;;;;;2.55;2.35;;;13.40;78.10;;;;;;5132243;27;20027;-45
2020/12/12 01:09:56;;;;;;;3.92;2.90;;;13.40;78.10;;;;;;5131557;27;21325;-45
2020/12/12 01:12:23;;;;;;;3.20;2.90;;;13.40;78.10;;;;;;5129614;27;20027;-45
2020/12/12 01:14:49;;;;;;;3.47;2.67;;;13.40;78.10;;;;;;5138875;27;20566;-44
2020/12/12 01:17:15;;;;;;;2.67;2.47;;;13.40;78.10;;;;;;5132957;27;20079;-46
2020/12/12 01:19:41;;;;;;;2.90;2.40;;;13.40;78.10;;;;;;5130674;27;20036;-44
2020/12/12 01:22:07;;;;;;;2.93;2.43;;;13.40;78.20;;;;;;5130802;27;20023;-45
2020/12/12 01:24:34;;;;;;;3.72;2.70;;;13.40;78.90;;;;;;5134016;27;20039;-45
2020/12/12 01:27:00;;;;;;;3.10;2.78;;;13.30;78.80;;;;;;5133308;27;20589;-45
2020/12/12 01:29:26;;;;;;;2.80;2.53;;;13.30;78.20;;;;;;5131360;27;20093;-45
2020/12/12 01:31:52;;;;;;;3.17;2.30;;;13.30;78.20;;;;;;5134170;27;20023;-45
2020/12/12 01:34:18;;;;;;;3.20;2.65;;;13.30;78.30;;;;;;5131831;27;20172;-45
2020/12/12 01:36:47;;;;;;;3.80;2.85;;;13.30;78.20;;;;;;5133828;27;20046;-45
2020/12/12 01:39:14;;;;;;;4.47;2.47;;;13.30;78.20;;;;;;5131476;27;20062;-44
2020/12/12 01:41:40;;;;;;;2.92;2.63;;;13.30;78.20;;;;;;5132191;27;20055;-46
2020/12/12 01:44:06;;;;;;;3.20;2.90;;;13.30;78.30;;;;;;5129248;27;20092;-45
2020/12/12 01:46:32;;;;;;;3.60;2.60;;;13.30;78.30;;;;;;5112321;27;20082;-44
2020/12/12 01:48:59;;;;;;;3.45;2.40;;;13.30;78.30;;;;;;5096964;27;20024;-45
2020/12/12 01:51:25;;;;;;;3.42;2.78;;;13.30;78.30;;;;;;5131019;27;20027;-45
2020/12/12 01:53:57;;;;;;;3.65;2.90;;;13.30;78.40;;;;;;5131767;27;20050;-45
2020/12/12 01:56:23;;;;;;;3.05;2.63;;;13.30;78.20;;;;;;5129904;27;20031;-45
2020/12/12 01:58:50;;;;;;;3.90;2.72;;;13.30;78.30;;;;;;5132116;27;20038;-46
2020/12/12 02:01:16;;;;;;;2.13;1.95;;;13.30;78.30;;;;;;5112794;27;20035;-46
2020/12/12 02:03:43;;;;;;;3.45;2.67;;;13.30;78.40;;;;;;5095658;28;20027;-45
2020/12/12 02:06:13;;;;;;;3.07;2.77;;;13.30;78.40;;;;;;5131897;27;20114;-45
2020/12/12 02:08:39;;;;;;;2.90;2.65;;;13.20;78.40;;;;;;5127920;27;20289;-45
2020/12/12 02:11:10;;;;;;;2.93;2.40;;;13.20;78.30;;;;;;5114211;27;20023;-45
2020/12/12 02:13:36;;;;;;;4.75;2.88;;;13.20;78.30;;;;;;5130589;27;20372;-46
2020/12/12 02:16:02;;;;;;;2.88;2.58;;;13.20;78.20;;;;;;5095484;28;20020;-45
2020/12/12 02:18:28;;;;;;;3.25;2.78;;;13.20;78.30;;;;;;5125123;27;20042;-45
2020/12/12 02:20:56;;;;;;;3.72;3.05;;;13.20;78.30;;;;;;5128586;27;20020;-44
2020/12/12 02:23:23;;;;;;;2.85;2.53;;;13.20;78.30;;;;;;5131766;27;20028;-45
2020/12/12 02:25:49;;;;;;;3.17;2.88;;;13.20;78.30;;;;;;5134363;27;20053;-45
2020/12/12 02:28:19;;;;;;;4.27;3.00;;;13.20;78.20;;;;;;5129465;27;20564;-45
2020/12/12 02:30:45;;;;;;;3.20;2.78;;;13.20;78.20;;;;;;5130595;27;20046;-45
2020/12/12 02:33:12;;;;;;;3.30;2.85;;;13.20;78.10;;;;;;5131133;27;20023;-46
2020/12/12 02:35:38;;;;;;;3.33;2.78;;;13.10;78.40;;;;;;5126720;27;20028;-45
2020/12/12 02:38:04;;;;;;;4.00;3.10;;;13.10;77.80;;;;;;5130003;27;20031;-45
2020/12/12 02:40:30;;;;;;;2.63;2.40;;;13.10;78.20;;;;;;5127928;27;20047;-45
2020/12/12 02:42:56;;;;;;;3.80;3.28;;;13.10;77.90;;;;;;5131786;27;20024;-44
2020/12/12 02:45:22;;;;;;;4.32;2.78;;;13.10;77.80;;;;;;5110390;27;20043;-44
2020/12/12 02:47:49;;;;;;;3.05;2.75;;;13.10;78.20;;;;;;5128335;27;20053;-45
2020/12/12 02:50:24;;;;;;;3.22;2.50;;;13.10;77.80;;;;;;5130569;27;20143;-45
2020/12/12 02:52:50;;;;;;;4.03;2.97;;;13.10;77.90;;;;;;5124316;27;20032;-44
2020/12/12 02:55:16;;;;;;;3.45;2.92;;;13.10;77.90;;;;;;5131531;27;20027;-45
2020/12/12 02:57:42;;;;;;;3.63;2.85;;;13.10;77.90;;;;;;5131999;27;20026;-44
2020/12/12 03:00:10;;;;;;;3.40;3.10;;;13.00;78.40;;;;;;5129232;27;20735;-45
2020/12/12 03:02:37;;;;;;;3.63;2.88;;;13.00;78.20;;;;;;5127814;27;20039;-44
2020/12/12 03:05:04;;;;;;;3.95;2.75;;;13.00;78.10;;;;;;5131880;27;20038;-43
2020/12/12 03:07:31;;;;;;;3.75;3.08;;;13.00;78.00;;;;;;5131221;27;20053;-46
2020/12/12 03:09:58;;;;;;;3.83;3.08;;;13.00;78.00;;;;;;5110540;28;20036;-45
2020/12/12 03:12:24;;;;;;;3.67;3.00;;;13.00;77.90;;;;;;5132002;27;20019;-44
2020/12/12 03:14:50;;;;;;;5.00;3.40;;;13.00;78.30;;;;;;5129046;27;20050;-44
2020/12/12 03:17:16;;;;;;;3.92;3.13;;;12.90;78.00;;;;;;5131060;28;20059;-45
2020/12/12 03:19:42;;;;;;;3.30;3.00;;;12.90;78.40;;;;;;5128296;28;20083;-44
2020/12/12 03:22:08;;;;;;;3.45;2.58;;;12.90;78.20;;;;;;5129741;28;20024;-45
2020/12/12 03:24:34;;;;;;;3.38;2.90;;;12.90;78.10;;;;;;5125414;28;20040;-44
2020/12/12 03:27:00;;;;;;;4.72;3.25;;;12.90;78.00;;;;;;5130668;28;20034;-44
2020/12/12 03:29:27;;;;;;;3.90;2.95;;;12.90;78.00;;;;;;5129302;28;20034;-44
2020/12/12 03:31:53;;;;;;;3.67;2.90;;;12.90;78.00;;;;;;5132807;28;20031;-44
2020/12/12 03:34:19;;;;;;;3.20;2.90;;;12.90;78.10;;;;;;5133126;28;20080;-44
2020/12/12 03:36:45;;;;;;;3.08;2.78;;;12.80;77.90;;;;;;5129529;28;20028;-45
2020/12/12 03:39:11;;;;;;;3.42;3.03;;;12.80;78.20;;;;;;5130820;27;20036;-45
2020/12/12 03:41:38;;;;;;;3.25;2.92;;;12.90;78.00;;;;;;5136050;27;20034;-44
2020/12/12 03:44:04;;;;;;;4.45;3.15;;;12.80;77.90;;;;;;5136168;27;20038;-44
2020/12/12 03:46:30;;;;;;;4.35;3.00;;;12.80;77.90;;;;;;5135094;27;20039;-44
2020/12/12 03:48:56;;;;;;;3.47;3.00;;;12.80;77.90;;;;;;5132732;27;20026;-44
2020/12/12 03:51:23;;;;;;;4.00;2.92;;;12.80;78.00;;;;;;5134538;27;20094;-45
2020/12/12 03:53:49;;;;;;;4.30;3.08;;;12.80;77.90;;;;;;5131456;27;20057;-44
2020/12/12 03:56:15;;;;;;;3.70;3.40;;;12.80;77.90;;;;;;5129766;27;20095;-44
2020/12/12 03:58:41;;;;;;;3.38;3.08;;;12.80;77.90;;;;;;5134403;27;20267;-45
2020/12/12 04:01:08;;;;;;;3.85;3.22;;;12.70;77.80;;;;;;5133301;27;20023;-45
2020/12/12 04:03:34;;;;;;;3.70;3.00;;;12.70;77.80;;;;;;5111305;27;20057;-44
2020/12/12 04:06:00;;;;;;;4.63;3.10;;;12.80;77.90;;;;;;5129111;27;20051;-46
2020/12/12 04:08:27;;;;;;;4.13;3.22;;;12.70;77.80;;;;;;5133468;27;20070;-45
2020/12/12 04:10:53;;;;;;;3.78;2.90;;;12.70;77.80;;;;;;5130942;27;20035;-44
2020/12/12 04:13:19;;;;;;;3.72;3.30;;;12.70;77.60;;;;;;5137739;27;20023;-46
2020/12/12 04:15:45;;;;;;;3.67;3.00;;;12.70;77.70;;;;;;5109995;27;20019;-44
2020/12/12 04:18:11;;;;;;;3.28;2.80;;;12.70;77.90;;;;;;5135444;27;20463;-44
2020/12/12 04:20:37;;;;;;;4.80;2.90;;;12.70;77.70;;;;;;5128251;27;20062;-44
2020/12/12 04:23:03;;;;;;;3.63;3.20;;;12.70;77.70;;;;;;5135873;27;20024;-44
2020/12/12 04:25:30;;;;;;;3.25;2.90;;;12.70;77.80;;;;;;5131854;27;20031;-44
2020/12/12 04:27:56;;;;;;;3.15;2.85;;;12.70;77.70;;;;;;5136226;27;20023;-44
2020/12/12 04:30:22;;;;;;;3.85;3.10;;;12.70;77.70;;;;;;5138966;27;20054;-44
2020/12/12 04:32:48;;;;;;;3.65;3.22;;;12.60;77.60;;;;;;5128796;27;20024;-43
2020/12/12 04:35:14;;;;;;;3.55;3.20;;;12.60;77.70;;;;;;5131435;27;20037;-45
2020/12/12 04:37:40;;;;;;;4.03;2.97;;;12.60;77.70;;;;;;5134539;27;20053;-44
2020/12/12 04:40:10;;;;;;;4.45;3.55;;;12.60;77.80;;;;;;5131132;27;20059;-45
2020/12/12 04:42:36;;;;;;;3.88;3.08;;;12.60;77.80;;;;;;5134560;27;20027;-44
2020/12/12 04:45:03;;;;;;;3.28;2.97;;;12.60;77.80;;;;;;5110273;27;20046;-44
2020/12/12 04:47:29;;;;;;;3.50;3.10;;;12.60;77.80;;;;;;5129859;27;20020;-44
2020/12/12 04:49:55;;;;;;;3.47;2.97;;;12.60;77.90;;;;;;5101957;27;20040;-45
2020/12/12 04:52:24;;;;;;;4.10;3.28;;;12.60;77.80;;;;;;5094987;27;20050;-44
2020/12/12 04:54:50;;;;;;;3.20;2.80;;;12.60;77.80;;;;;;5132014;27;20095;-45
2020/12/12 04:57:16;;;;;;;5.00;3.30;;;12.60;77.80;;;;;;5134707;27;20034;-45
2020/12/12 04:59:43;;;;;;;3.70;3.30;;;12.50;77.80;;;;;;5135628;27;20028;-45
2020/12/12 05:02:12;;;;;;;3.67;2.72;;;12.50;77.90;;;;;;5132382;27;20036;-45
2020/12/12 05:04:41;;;;;;;4.78;3.13;;;12.60;77.90;;;;;;5114828;27;20043;-44
2020/12/12 05:07:10;;;;;;;3.60;3.13;;;12.50;77.70;;;;;;5127555;27;20177;-44
2020/12/12 05:09:36;;;;;;;4.05;3.50;;;12.50;77.80;;;;;;5132408;27;20039;-44
2020/12/12 05:12:02;;;;;;;3.95;3.03;;;12.50;77.90;;;;;;5135273;27;20091;-44
2020/12/12 05:14:29;;;;;;;4.05;3.65;;;12.50;77.90;;;;;;5133651;27;20066;-45
2020/12/12 05:16:57;;;;;;;3.67;3.28;;;12.50;77.90;;;;;;5111867;27;20055;-45
2020/12/12 05:19:23;;;;;;;;;;;12.50;78.00;;;;;;5117378;27;20030;-45
2020/12/12 05:21:50;;;;;;;4.10;3.10;;;12.40;77.90;;;;;;5132174;27;19908;-44
2020/12/12 05:24:16;;;;;;;3.90;3.50;;;12.50;78.00;;;;;;5131162;27;20031;-45
2020/12/12 05:26:43;;;;;;;3.58;3.08;;;12.50;77.90;;;;;;5131780;27;20024;-44
2020/12/12 05:29:12;;;;;;;3.80;3.17;;;12.40;78.00;;;;;;5129081;27;20030;-45
2020/12/12 05:31:39;;;;;;;3.55;3.08;;;12.40;78.00;;;;;;5130006;27;20032;-45
2020/12/12 05:34:13;;;;;;;4.10;3.70;;;12.40;77.90;;;;;;5113309;27;20049;-44
2020/12/12 05:36:40;;;;;;;4.07;3.42;;;12.40;78.00;;;;;;5108831;27;20182;-45
2020/12/12 05:39:10;;;;;;;4.30;3.60;;;12.40;78.60;;;;;;5133043;27;20023;-46
2020/12/12 05:41:36;;;;;;;4.32;3.42;;;12.40;78.00;;;;;;5133028;27;20035;-45
2020/12/12 05:44:03;;;;;;;4.25;3.60;;;12.40;77.90;;;;;;5136365;27;20107;-44
2020/12/12 05:46:29;;;;;;;5.00;4.00;;;12.40;78.00;;;;;;5113756;27;20062;-45
2020/12/12 05:48:55;;;;;;;3.95;3.55;;;12.40;78.00;;;;;;5128644;27;20024;-44
2020/12/12 05:51:21;;;;;;;4.23;3.83;;;12.40;78.00;;;;;;5130988;27;20027;-45
2020/12/12 05:53:48;;;;;;;4.00;3.60;;;12.40;78.00;;;;;;5135377;27;20330;-45
2020/12/12 05:56:14;;;;;;;4.20;3.53;;;12.40;78.00;;;;;;5131403;27;20019;-45
2020/12/12 05:58:42;;;;;;;4.25;3.70;;;12.30;78.00;;;;;;5128554;27;20095;-44
2020/12/12 06:01:16;;;;;;;4.32;3.45;;;12.30;78.00;;;;;;5105954;28;20487;-45
2020/12/12 06:03:49;;;;;;;4.90;4.00;;;12.30;78.00;;;;;;5113995;27;20062;-44
2020/12/12 06:06:16;;;;;;;4.30;3.75;;;12.30;78.00;;;;;;5133245;27;20027;-44
2020/12/12 06:08:42;;;;;;;5.85;3.92;;;12.30;78.00;;;;;;5097532;28;20031;-44
2020/12/12 06:11:08;;;;;;;4.43;3.85;;;12.30;78.00;;;;;;5092069;28;20028;-45
2020/12/12 06:13:38;;;;;;;4.43;3.75;;;12.30;78.00;;;;;;5133289;27;20058;-44
2020/12/12 06:16:07;;;;;;;4.18;3.63;;;12.30;78.00;;;;;;5133560;27;20038;-44
2020/12/12 06:18:38;;;;;;;3.92;3.30;;;12.30;78.00;;;;;;5129854;27;20019;-44
2020/12/12 06:21:07;;;;;;;3.92;3.53;;;12.30;78.00;;;;;;5128496;27;20099;-45
2020/12/12 06:23:38;;;;;;;4.05;3.65;;;12.30;78.00;;;;;;5130943;27;20031;-44
2020/12/12 06:26:05;;;;;;;4.53;3.80;;;12.20;77.90;;;;;;5138637;27;20681;-44
2020/12/12 06:28:31;;;;;;;5.22;3.80;;;12.20;77.90;;;;;;5129069;27;20028;-42
2020/12/12 06:30:58;;;;;;;4.22;3.83;;;12.20;78.00;;;;;;5097360;27;20041;-44
2020/12/12 06:33:24;;;;;;;4.18;3.78;;;12.20;78.00;;;;;;5094558;27;20110;-46
2020/12/12 06:35:50;;;;;;;4.15;3.75;;;12.20;78.00;;;;;;5126148;27;20027;-44
2020/12/12 06:38:28;;;;;;;4.57;3.78;;;12.20;78.00;;;;;;5131404;27;20030;-44
2020/12/12 06:40:56;;;;;;;;;;;12.20;78.00;;;;;;5123021;27;20019;-44
2020/12/12 06:43:54;;;;;;;4.78;4.00;;;12.20;78.10;;;;;;5114060;27;19912;-44
2020/12/12 06:46:20;;;;;;;5.30;4.18;;;12.20;78.10;;;;;;5126429;27;20072;-44
2020/12/12 06:48:46;;;;;;;4.78;4.10;;;12.20;78.10;;;;;;5132508;27;20027;-44
2020/12/12 06:51:12;;;;;;;5.45;4.38;;;12.10;78.00;;;;;;5132577;27;20028;-44
2020/12/12 06:53:38;;;;;;;4.80;4.00;;;12.20;78.00;;;;;;5097519;27;20027;-46
2020/12/12 06:56:14;;;;;;;4.93;3.97;;;12.20;78.10;;;;;;5122669;27;20020;-44
2020/12/12 06:58:44;;;;;;;5.45;3.78;;;12.20;78.10;;;;;;5128799;27;20036;-44
2020/12/12 07:01:35;;;;;;;4.38;3.97;;;12.10;78.00;;;;;;5132222;27;20036;-43
2020/12/12 07:04:03;;;;;;;6.43;4.32;;;12.10;78.00;;;;;;5130535;27;20036;-45
2020/12/12 07:06:29;;;;;;;;;;;12.10;78.00;;;;;;5131493;27;20062;-44
2020/12/12 07:09:03;;;;;;;5.55;4.40;;;12.10;78.10;;;;;;5123755;27;19907;-44
2020/12/12 07:11:31;;;;;;;5.13;4.25;;;12.10;78.00;;;;;;5128169;27;20060;-44
2020/12/12 07:13:58;;;;;;;6.18;3.83;;;12.10;78.10;;;;;;5110555;28;20027;-45
2020/12/12 07:16:25;;;;;;;5.60;4.20;;;12.10;78.80;;;;;;5131768;27;20039;-44
2020/12/12 07:18:51;;;;;;;5.25;4.18;;;12.10;78.10;;;;;;5107443;28;20040;-44
2020/12/12 07:21:18;;;;;;;7.03;4.10;;;12.10;78.10;;;;;;5130822;28;20112;-46
2020/12/12 07:23:45;;;;;;;5.05;4.10;;;12.10;78.10;;;;;;5131013;28;20035;-45
2020/12/12 07:26:11;;;;;;;5.82;4.53;;;12.10;78.10;;;;;;5127567;28;20139;-44
2020/12/12 07:28:38;;;;;;;5.35;4.43;;;12.10;78.90;;;;;;5108388;28;20024;-44
2020/12/12 07:31:05;;;;;;;5.15;4.25;;;12.10;78.10;;;;;;5108706;28;20046;-44
2020/12/12 07:33:31;;;;;;;6.05;4.57;;;12.00;78.10;;;;;;5132608;28;20032;-44
2020/12/12 07:35:57;;;;;;;5.05;4.18;;;12.00;78.10;;;;;;5125837;28;20502;-45
2020/12/12 07:38:24;;;;;;;6.25;4.57;;;12.00;78.10;;;;;;5132341;28;20028;-44
2020/12/12 07:40:50;;;;;;;6.57;4.68;;;12.00;78.10;;;;;;5133393;28;20027;-45
2020/12/12 07:43:17;;;;;;;4.90;4.28;;;12.00;78.10;;;;;;5130512;28;20034;-44
2020/12/12 07:48:27;;;;;;;5.20;4.30;;;12.00;78.20;;;;;;5129220;28;20028;-44
2020/12/12 07:50:53;;;;;;;6.40;4.60;;;12.00;78.20;;;;;;5126910;28;20027;-45
2020/12/12 07:53:20;;;;;;;5.43;4.30;;;12.00;78.20;;;;;;5130086;28;20018;-44
2020/12/12 07:55:57;;;;;;;5.50;4.57;;;12.00;78.20;;;;;;5126778;28;20027;-44
2020/12/12 07:58:26;;;;;;;5.22;4.70;;;12.00;78.20;;;;;;5132357;28;20019;-44
2020/12/12 08:00:59;;;;;;;6.53;5.22;;;12.00;78.20;;;;;;5116008;28;20039;-45
2020/12/12 08:03:25;;;;;;;6.63;4.70;;;12.00;78.30;;;;;;5128803;28;20134;-45
2020/12/12 08:06:08;;;;;;;5.95;4.47;;;11.90;78.20;;;;;;5108831;28;20715;-45
2020/12/12 08:08:35;;;;;;;7.05;5.20;;;11.90;78.20;;;;;;5127191;28;20032;-44
2020/12/12 08:11:01;;;;;;;6.03;4.97;;;11.90;78.20;;;;;;5127456;28;20030;-44
2020/12/12 08:13:28;;;;;;;5.95;4.82;;;11.90;78.20;;;;;;5127861;28;20020;-44
2020/12/12 08:16:10;;;;;;;6.35;4.70;;;11.90;78.20;;;;;;5134764;28;20045;-46
2020/12/12 08:18:36;;;;;;;5.35;4.43;;;11.90;78.20;;;;;;5130394;28;20031;-45
2020/12/12 08:21:15;;;;;;;5.25;4.75;;;11.90;78.20;;;;;;5130817;28;20037;-44
2020/12/12 08:23:42;;;;;;;5.07;4.50;;;11.90;78.30;;;;;;5120600;28;20032;-45
2020/12/12 08:26:13;;;;;;;5.25;4.75;;;11.90;78.30;;;;;;5133877;27;20024;-44
2020/12/12 08:28:39;;;;;;;6.15;4.90;;;11.90;78.30;;;;;;5112633;27;20023;-44
2020/12/12 08:31:12;;;;;;;5.38;4.63;;;11.90;78.30;;;;;;5131361;27;20056;-44
2020/12/12 08:33:38;;;;;;;5.90;4.85;;;11.90;78.30;;;;;;5121853;27;20027;-44
2020/12/12 08:36:11;;;;;;;6.28;4.97;;;11.90;78.30;;;;;;5127286;27;20046;-44
2020/12/12 08:38:37;;;;;;;5.82;5.13;;;11.90;78.30;;;;;;5121280;27;20027;-45
2020/12/12 08:41:10;;;;;;;5.65;4.85;;;11.90;78.30;;;;;;5101256;27;20020;-44
2020/12/12 08:43:37;;;;;;;6.40;4.95;;;11.90;78.30;;;;;;5118661;27;20076;-44
2020/12/12 08:46:03;;;;;;;6.43;5.00;;;11.90;78.30;;;;;;5123560;27;20032;-45
2020/12/12 08:48:38;;;;;;;5.73;4.77;;;11.90;78.40;;;;;;5126472;27;20053;-44
2020/12/12 08:51:05;;;;;;;6.85;5.03;;;11.80;78.30;;;;;;5131927;27;20027;-44
2020/12/12 08:53:44;;;;;;;6.20;5.03;;;11.90;78.30;;;;;;5105850;27;20032;-45
2020/12/12 08:56:15;;;;;;;5.85;4.90;;;11.80;78.40;;;;;;5119671;27;20058;-44
2020/12/12 08:59:04;;;;;;;7.10;5.50;;;11.80;78.30;;;;;;5121240;27;20030;-45
2020/12/12 09:01:43;;;;;;;7.82;5.20;;;11.80;78.30;;;;;;5122959;27;20044;-44
2020/12/12 09:04:09;;;;;;;6.03;4.95;;;11.80;78.30;;;;;;5134369;27;20066;-44
2020/12/12 09:06:41;;;;;;;7.78;5.57;;;11.80;79.00;;;;;;5133473;27;20031;-45
2020/12/12 09:09:09;;;;;;;7.68;5.20;;;11.80;78.30;;;;;;5131518;27;20039;-44
2020/12/12 09:11:35;;;;;;;5.63;4.97;;;11.80;79.10;;;;;;5132129;27;20026;-44
2020/12/12 09:14:01;;;;;;;4.27;3.47;;;11.80;78.30;;;;;;5133236;27;20042;-45
2020/12/12 09:16:28;;;;;;;7.03;5.40;;;11.80;78.30;;;;;;5132111;27;20056;-44
2020/12/12 09:18:57;;;;;;;5.55;4.50;;;11.80;78.30;;;;;;5130846;27;20055;-43
2020/12/12 09:21:23;;;;;;;6.85;5.38;;;11.80;78.30;;;;;;5134607;27;20052;-44
2020/12/12 09:23:49;;;;;;;7.17;5.37;;;11.80;78.40;;;;;;5129151;27;20031;-44
2020/12/12 09:26:17;;;;;;;8.02;5.35;;;11.80;78.40;;;;;;5136239;27;20283;-46
2020/12/12 09:28:43;;;;;;;5.78;5.15;;;11.80;78.40;;;;;;5135361;27;20028;-44
2020/12/12 09:31:10;;;;;;;5.93;5.03;;;11.80;78.40;;;;;;5132151;27;20074;-45
2020/12/12 09:33:36;;;;;;;7.72;5.40;;;11.70;78.30;;;;;;5138620;27;20023;-45
2020/12/12 09:36:05;;;;;;;6.75;5.10;;;11.70;78.40;;;;;;5131892;27;20057;-44
2020/12/12 09:38:31;;;;;;;7.72;5.93;;;11.70;78.40;;;;;;5135706;27;20458;-44
2020/12/12 09:40:58;;;;;;;6.50;5.00;;;11.70;78.40;;;;;;5132252;27;20027;-45
2020/12/12 09:43:24;;;;;;;6.07;4.70;;;11.70;78.40;;;;;;5136313;27;20451;-44
2020/12/12 09:45:50;;;;;;;7.60;5.05;;;11.70;78.40;;;;;;5137350;27;20027;-44
2020/12/12 09:48:16;;;;;;;7.47;5.72;;;11.70;78.40;;;;;;5133764;27;20118;-44
2020/12/12 09:50:43;;;;;;;6.55;4.95;;;11.70;78.40;;;;;;5128029;27;20030;-44
2020/12/12 09:53:09;;;;;;;7.60;5.72;;;11.70;78.40;;;;;;5128655;27;20080;-44
2020/12/12 09:55:37;;;;;;;8.10;5.60;;;11.70;78.40;;;;;;5137355;27;20037;-44
2020/12/12 09:58:06;;;;;;;;;;;11.70;78.40;;;;;;5113185;27;20039;-45
2020/12/12 10:00:34;;;;;;;6.05;4.90;;;11.70;78.40;;;;;;5132371;27;19903;-45
2020/12/12 10:03:01;;;;;;;7.32;5.25;;;11.70;78.40;;;;;;5117374;27;20043;-45
2020/12/12 10:05:27;;;;;;;6.43;5.20;;;11.70;78.40;;;;;;5133162;27;20027;-44
2020/12/12 10:07:56;;;;;;;7.43;5.55;;;11.70;78.40;;;;;;5130737;27;20454;-44
2020/12/12 10:10:24;;;;;;;6.20;4.93;;;11.60;78.40;;;;;;5140976;27;20058;-44
2020/12/12 10:12:50;;;;;;;6.72;5.50;;;11.60;78.40;;;;;;5133015;27;20015;-44
2020/12/12 10:15:17;;;;;;;7.65;5.60;;;11.60;78.40;;;;;;5095047;27;20023;-43
2020/12/12 10:17:44;;;;;;;;;;;11.60;78.50;;;;;;5101507;28;20048;-44
2020/12/12 10:20:10;;;;;;;6.05;5.30;;;11.60;78.50;;;;;;5100762;28;19916;-45
2020/12/12 10:22:36;;;;;;;6.78;5.15;;;11.60;78.40;;;;;;5101364;28;20024;-45
2020/12/12 10:25:03;;;;;;;7.47;5.72;;;11.60;78.40;;;;;;5100996;28;20507;-45
2020/12/12 10:27:29;;;;;;;7.10;5.85;;;11.60;78.50;;;;;;5101149;28;20043;-44
2020/12/12 10:29:55;;;;;;;7.25;5.88;;;11.60;78.50;;;;;;5100356;28;20470;-44
2020/12/12 10:32:22;;;;;;;6.25;5.10;;;11.60;78.50;;;;;;5100718;28;20023;-44
2020/12/12 10:34:48;;;;;;;6.75;5.70;;;11.60;78.50;;;;;;5097534;28;20031;-45
2020/12/12 10:37:14;;;;;;;6.00;4.97;;;11.60;78.50;;;;;;5100239;28;20032;-44
2020/12/12 10:40:09;;;;;;;6.97;5.90;;;11.60;78.50;;;;;;5100505;28;20027;-44
2020/12/12 10:42:26;;;;;;;7.65;6.18;;;11.60;78.60;;;;;;5099770;28;20049;-44
2020/12/12 10:44:53;;;;;;;7.45;5.60;;;11.60;78.60;;;;;;5098968;28;20036;-45
2020/12/12 10:47:19;;;;;;;7.57;5.53;;;11.60;78.60;;;;;;5099880;28;20109;-44
2020/12/12 10:49:45;;;;;;;7.63;5.90;;;11.60;78.60;;;;;;5100602;28;20088;-46
2020/12/12 10:52:11;;;;;;;6.22;5.45;;;11.50;78.50;;;;;;5100161;28;20261;-44
2020/12/12 10:54:39;;;;;;;7.28;5.30;;;11.50;78.50;;;;;;5100639;28;20062;-45
2020/12/12 10:57:05;;;;;;;;;;;11.50;78.60;;;;;;5101197;28;20044;-46
2020/12/12 10:59:31;;;;;;;7.38;5.75;;;11.50;78.60;;;;;;5100595;28;19912;-44
2020/12/12 11:01:57;;;;;;;7.40;5.68;;;11.50;78.60;;;;;;5096910;28;20023;-44
2020/12/12 11:04:23;;;;;;;8.68;6.43;;;11.50;78.70;;;;;;5074602;28;20722;-45
2020/12/12 11:06:50;;;;;;;7.00;5.33;;;11.50;78.60;;;;;;5093189;28;20065;-46
2020/12/12 11:09:17;;;;;;;7.07;6.10;;;11.50;78.60;;;;;;5090866;28;20063;-44
2020/12/12 11:11:43;;;;;;;7.22;5.60;;;11.50;78.60;;;;;;5091007;28;20032;-44
2020/12/12 11:14:09;;;;;;;7.15;5.10;;;11.50;78.60;;;;;;5092200;28;20026;-44
2020/12/12 11:16:36;;;;;;;5.03;4.03;;;11.50;78.60;;;;;;5092167;28;20045;-44
2020/12/12 11:19:03;;;;;;;7.55;5.82;;;11.50;78.60;;;;;;5091868;28;20039;-44
2020/12/12 11:21:29;;;;;;;;;;;11.50;78.70;;;;;;5092431;28;20028;-44
2020/12/12 11:23:56;;;;;;;6.35;5.50;;;11.50;78.70;;;;;;5093123;28;19984;-44
2020/12/12 11:26:22;;;;;;;7.97;5.67;;;11.50;78.60;;;;;;5091872;28;20036;-44
2020/12/12 11:28:48;;;;;;;7.57;5.70;;;11.50;79.30;;;;;;5090878;28;20035;-44
2020/12/12 11:31:22;;;;;;;7.68;5.75;;;11.50;78.70;;;;;;5091562;28;20024;-43
2020/12/12 11:34:34;;;;;;;8.13;5.63;;;11.50;78.60;;;;;;5099164;28;20096;-46
2020/12/12 11:36:59;;;;;;;7.10;5.63;;;11.50;78.70;;;;;;5078706;28;20043;-44
2020/12/12 11:39:38;;;;;;;7.93;5.25;;;11.40;78.60;;;;;;5099352;28;20028;-44
2020/12/12 11:45:25;;;;;;;6.22;5.63;;;11.40;78.60;;;;;;5097663;28;20100;-44
2020/12/12 11:47:52;;;;;;;6.82;5.65;;;11.40;78.60;;;;;;5097172;28;20039;-44
2020/12/12 11:50:18;;;;;;;6.57;5.28;;;11.40;78.70;;;;;;5100441;28;20038;-45
2020/12/12 11:52:45;;;;;;;7.45;5.55;;;11.40;78.70;;;;;;5099624;28;20024;-45
2020/12/12 11:55:11;;;;;;;;;;;11.40;78.60;;;;;;5099511;28;20036;-44
2020/12/12 11:57:37;;;;;;;6.45;5.32;;;11.40;78.60;;;;;;5099539;28;19912;-44
2020/12/12 12:00:12;;;;;;;6.43;5.65;;;11.40;78.70;;;;;;5102518;28;20037;-44
2020/12/12 12:02:38;;;;;;;7.25;6.00;;;11.40;78.60;;;;;;5103839;28;20028;-45
2020/12/12 12:05:04;;;;;;;8.32;6.32;;;11.40;78.60;;;;;;5085523;28;20086;-44
2020/12/12 12:07:31;;;;;;;5.82;5.22;;;11.30;78.60;;;;;;5103386;28;20028;-45
2020/12/12 12:10:42;;;;;;;7.97;5.25;;;11.30;79.10;;;;;;5103440;28;20089;-45
2020/12/12 12:12:46;;;;;;;6.97;5.85;;;11.30;78.60;;;;;;5096227;28;20109;-44
2020/12/12 12:15:13;;;;;;;6.63;5.50;;;11.30;78.60;;;;;;5103619;28;20059;-44
2020/12/12 12:17:39;;;;;;;6.13;5.43;;;11.30;78.70;;;;;;5133497;27;20055;-44
2020/12/12 12:20:06;;;;;;;5.93;5.32;;;11.30;78.60;;;;;;5131683;27;20024;-44
2020/12/12 12:22:32;;;;;;;6.35;5.50;;;11.30;78.70;;;;;;5132596;27;20024;-44
2020/12/12 12:24:58;;;;;;;7.03;6.03;;;11.30;78.70;;;;;;5135713;27;20502;-44
2020/12/12 12:27:24;;;;;;;8.30;6.07;;;11.30;78.70;;;;;;5119883;27;20023;-44
2020/12/12 12:29:51;;;;;;;6.40;5.55;;;11.30;78.70;;;;;;5124687;27;20045;-46
2020/12/12 12:32:17;;;;;;;7.07;5.55;;;11.30;78.80;;;;;;5136453;27;20023;-45
2020/12/12 12:34:43;;;;;;;6.72;5.70;;;11.30;78.80;;;;;;5128507;27;20551;-45
2020/12/12 12:37:09;;;;;;;6.78;5.63;;;11.30;78.70;;;;;;5135226;27;20053;-44
2020/12/12 12:39:35;;;;;;;6.35;5.40;;;11.30;78.70;;;;;;5129139;27;20042;-44
2020/12/12 12:42:05;;;;;;;6.93;5.53;;;11.30;78.80;;;;;;5133681;27;20042;-44
2020/12/12 12:44:32;;;;;;;6.47;5.78;;;11.30;78.80;;;;;;5131865;27;20039;-44
2020/12/12 12:46:58;;;;;;;6.47;5.32;;;11.30;78.80;;;;;;5133394;27;20028;-45
2020/12/12 12:49:25;;;;;;;7.00;5.75;;;11.30;78.80;;;;;;5134697;27;20026;-43
2020/12/12 12:51:51;;;;;;;7.22;5.63;;;11.30;78.80;;;;;;5134254;27;20027;-45
2020/12/12 12:54:17;;;;;;;7.25;6.03;;;11.30;78.80;;;;;;5132594;27;20023;-45
2020/12/12 12:56:44;;;;;;;6.47;5.80;;;11.30;78.80;;;;;;5116701;27;20058;-44